CheckWX is a tool to help pilots better visualize weather data.  It is not intended as a substitute for an official pre-flight weather briefing.

07:24:32 UTC

LTCG TAF
Trabzon International Airport
Trabzon, Turkey
TAF LTCG 190440Z 1906/2006 VRB02KT 9999 SCT035 TEMPO 1906/1909 -SHRA SCT010 FEW020CB BKN028 PROB40 TEMPO 1909/1913 27015G25KT -TSRA SCT008 FEW018CB BKN028 TEMPO 1913/1917 27015G25KT -TSRA FEW020CB BKN028

Jun-19@
06:00 UTC

Jun-19 @ 06:00 UTC

Jun-20@
06:00 UTC

Jun-20 @ 06:00 UTC

TAF LTCG 190440Z 1906/2006 VRB02KT 9999 SCT035
Wind
  • Variable at 2 KTS
Cloud Levels
  • Scattered at 3,500' AGL

Jun-19@
06:00 UTC

Jun-19 @ 06:00 UTC

Jun-19@
09:00 UTC

Jun-19 @ 09:00 UTC

TEMPO 1906/1909 -SHRA SCT010 FEW020CB BKN028

Temporary

Temporary Changes expected for less than half the time period

Conditions
Light Rain
Cloud Levels
  • Scattered at 1,000' AGL
  • Few at 2,000' AGL
  • Broken at 2,800' AGL

Jun-19@
09:00 UTC

Jun-19 @ 09:00 UTC

Jun-19@
13:00 UTC

Jun-19 @ 13:00 UTC

PROB40 TEMPO 1909/1913 27015G25KT -TSRA SCT008 FEW018CB BKN028

Temporary - 40% Likelihood

Temporary - 40% Likelihood during this time.

Wind
  • 270° at 15 KTS
  • {Gusting to 25 KTS
Conditions
Light Thunderstorm, Light Rain
Cloud Levels
  • Scattered at 800' AGL
  • Few at 1,800' AGL
  • Broken at 2,800' AGL

Jun-19@
13:00 UTC

Jun-19 @ 13:00 UTC

Jun-19@
17:00 UTC

Jun-19 @ 17:00 UTC

TEMPO 1913/1917 27015G25KT -TSRA FEW020CB BKN028

Temporary

Temporary Changes expected for less than half the time period

Wind
  • 270° at 15 KTS
  • {Gusting to 25 KTS
Conditions
Light Thunderstorm, Light Rain
Cloud Levels
  • Few at 2,000' AGL
  • Broken at 2,800' AGL